createdAt,value
2019-02-12T00:00:51.806Z,102635.78
2019-02-12T00:03:20.455Z,102640.08
2019-02-12T00:05:49.070Z,102646.05
2019-02-12T00:08:17.655Z,102650.91
2019-02-12T00:10:46.206Z,102659.81
2019-02-12T00:13:14.793Z,102659.02
2019-02-12T00:15:43.458Z,102656.59
2019-02-12T00:18:12.087Z,102653.87
2019-02-12T00:20:40.759Z,102654.95
2019-02-12T00:23:09.331Z,102653.34
2019-02-12T00:25:37.927Z,102660.63
2019-02-12T00:28:06.432Z,102656.84
2019-02-12T00:30:35.147Z,102663.89
2019-02-12T00:33:03.961Z,102669.02
2019-02-12T00:35:33.069Z,102679.30
2019-02-12T00:38:01.733Z,102677.93
2019-02-12T00:40:30.544Z,102682.27
2019-02-12T00:42:59.084Z,102671.73
2019-02-12T00:45:27.688Z,102667.94
2019-02-12T00:47:56.460Z,102674.96
2019-02-12T00:50:25.062Z,102671.98
2019-02-12T00:52:53.891Z,102672.55
2019-02-12T00:55:22.991Z,102669.55
2019-02-12T00:57:51.892Z,102669.03
2019-02-12T01:00:20.397Z,102672.79
2019-02-12T01:02:48.837Z,102662.25
2019-02-12T01:05:17.601Z,102678.76
2019-02-12T01:07:46.898Z,102671.71
2019-02-12T01:10:19.947Z,102677.41
2019-02-12T01:12:48.619Z,102679.02
2019-02-12T01:15:17.122Z,102691.70
2019-02-12T01:17:45.771Z,102700.05
2019-02-12T01:20:15.341Z,102697.34
2019-02-12T01:22:44.060Z,102695.97
2019-02-12T01:25:12.624Z,102698.33
2019-02-12T01:27:41.426Z,102702.45
2019-02-12T01:30:14.143Z,102712.96
2019-02-12T01:32:44.344Z,102714.05
2019-02-12T01:35:13.495Z,102723.49
2019-02-12T01:37:42.285Z,102724.02
2019-02-12T01:40:12.863Z,102722.41
2019-02-12T01:42:41.656Z,102710.22
2019-02-12T01:45:12.911Z,102718.09
2019-02-12T01:47:41.763Z,102716.18
2019-02-12T01:50:12.990Z,102731.03
2019-02-12T01:52:42.010Z,102729.94
2019-02-12T01:55:10.438Z,102742.40
2019-02-12T01:57:39.879Z,102734.84
2019-02-12T02:00:13.639Z,102734.52
2019-02-12T02:02:42.876Z,102730.72
2019-02-12T02:05:11.446Z,102725.57
2019-02-12T02:07:40.059Z,102715.58
2019-02-12T02:10:12.350Z,102734.98
2019-02-12T02:12:41.473Z,102743.64
2019-02-12T02:15:11.254Z,102747.12
2019-02-12T02:17:39.866Z,102752.73
2019-02-12T02:20:09.480Z,102752.53
2019-02-12T02:22:39.433Z,102750.62
2019-02-12T02:25:09.420Z,102756.31
2019-02-12T02:27:39.023Z,102753.91
2019-02-12T02:30:10.706Z,102753.37
2019-02-12T02:32:39.426Z,102756.88
2019-02-12T02:35:08.137Z,102762.77
2019-02-12T02:37:38.462Z,102755.77
2019-02-12T02:40:08.497Z,102748.13
2019-02-12T02:42:37.897Z,102744.92
2019-02-12T02:45:07.785Z,102752.80
2019-02-12T02:47:36.414Z,102749.27
2019-02-12T02:50:05.816Z,102744.72
2019-02-12T02:52:35.760Z,102744.70
2019-02-12T02:55:05.097Z,102735.00
2019-02-12T02:57:33.656Z,102733.39
2019-02-12T03:00:02.557Z,102730.42
2019-02-12T03:02:31.171Z,102737.41
2019-02-12T03:05:00.259Z,102733.42
2019-02-12T03:07:28.947Z,102735.03
2019-02-12T03:09:58.303Z,102738.44
2019-02-12T03:12:28.704Z,102740.34
2019-02-12T03:15:16.137Z,102737.13
2019-02-12T03:17:45.843Z,102739.30
2019-02-12T03:20:15.788Z,102741.20
2019-02-12T03:22:45.725Z,102749.34
2019-02-12T03:25:14.203Z,102758.77
2019-02-12T03:27:42.810Z,102758.00
2019-02-12T03:30:11.773Z,102758.50
2019-02-12T03:32:40.320Z,102764.61
2019-02-12T03:35:10.542Z,102768.99
2019-02-12T03:37:39.051Z,102765.72
2019-02-12T03:40:09.080Z,102765.02
2019-02-12T03:42:37.904Z,102766.61
2019-02-12T03:45:07.471Z,102768.22
2019-02-12T03:47:36.150Z,102772.80
2019-02-12T03:50:05.666Z,102769.02
2019-02-12T03:52:34.647Z,102762.83
2019-02-12T03:55:03.954Z,102769.89
2019-02-12T03:57:32.746Z,102758.77
2019-02-12T04:00:01.589Z,102762.53
2019-02-12T04:02:30.287Z,102763.06
2019-02-12T04:04:58.661Z,102761.93
2019-02-12T04:07:27.276Z,102765.19
2019-02-12T04:09:56.106Z,102762.25
2019-02-12T04:12:25.214Z,102763.84
2019-02-12T04:14:54.149Z,102776.01
2019-02-12T04:17:22.865Z,102775.14
2019-02-12T04:19:51.435Z,102782.73
2019-02-12T04:22:22.467Z,102782.23
2019-02-12T04:24:51.043Z,102790.56
2019-02-12T04:27:19.675Z,102789.22
2019-02-12T04:29:48.175Z,102787.05
2019-02-12T04:32:16.694Z,102796.50
2019-02-12T04:34:45.637Z,102790.56
2019-02-12T04:37:14.225Z,102788.40
2019-02-12T04:39:42.996Z,102780.53
2019-02-12T04:42:12.589Z,102779.45
2019-02-12T04:44:42.387Z,102795.65
2019-02-12T04:47:11.182Z,102794.03
2019-02-12T04:49:40.246Z,102797.77
2019-02-12T04:52:08.754Z,102791.36
2019-02-12T04:54:38.406Z,102795.06
2019-02-12T04:57:06.911Z,102795.30
2019-02-12T04:59:35.567Z,102799.64
2019-02-12T05:02:04.177Z,102793.75
2019-02-12T05:04:32.924Z,102802.63
2019-02-12T05:07:01.564Z,102798.85
2019-02-12T05:09:31.416Z,102811.26
2019-02-12T05:12:03.434Z,102803.50
2019-02-12T05:14:32.145Z,102814.55
2019-02-12T05:17:00.941Z,102806.69
2019-02-12T05:19:29.552Z,102824.55
2019-02-12T05:21:58.099Z,102819.44
2019-02-12T05:24:26.872Z,102826.19
2019-02-12T05:26:55.381Z,102820.27
2019-02-12T05:29:23.859Z,102817.80
2019-02-12T05:31:52.429Z,102821.29
2019-02-12T05:34:21.053Z,102828.33
2019-02-12T05:36:49.732Z,102827.45
2019-02-12T05:39:18.905Z,102829.13
2019-02-12T05:41:47.528Z,102834.73
2019-02-12T05:44:16.359Z,102831.97
2019-02-12T05:46:45.080Z,102836.28
2019-02-12T05:49:13.715Z,102840.88
2019-02-12T05:51:42.292Z,102844.57
2019-02-12T05:54:10.773Z,102847.27
2019-02-12T05:56:39.785Z,102861.38
2019-02-12T05:59:08.366Z,102852.70
2019-02-12T06:01:38.681Z,102860.50
2019-02-12T06:04:07.420Z,102862.94
2019-02-12T06:06:35.960Z,102855.92
2019-02-12T06:09:05.198Z,102858.92
2019-02-12T06:11:33.764Z,102856.41
2019-02-12T06:14:02.848Z,102858.59
2019-02-12T06:16:31.449Z,102854.28
2019-02-12T06:19:00.299Z,102863.13
2019-02-12T06:21:28.744Z,102868.55
2019-02-12T06:23:57.987Z,102870.39
2019-02-12T06:26:26.638Z,102879.91
2019-02-12T06:28:55.824Z,102886.31
2019-02-12T06:31:24.390Z,102883.09
2019-02-12T06:33:53.243Z,102885.19
2019-02-12T06:36:21.709Z,102882.57
2019-02-12T06:38:50.329Z,102889.83
2019-02-12T06:41:18.760Z,102883.98
2019-02-12T06:43:47.452Z,102890.73
2019-02-12T06:46:16.328Z,102888.75
2019-02-12T06:48:45.034Z,102897.67
2019-02-12T06:51:13.752Z,102896.06
2019-02-12T06:53:42.285Z,102905.27
2019-02-12T06:56:11.051Z,102902.23
2019-02-12T06:58:39.735Z,102904.71
2019-02-12T07:01:08.306Z,102905.46
2019-02-12T07:03:53.945Z,102906.84
2019-02-12T07:07:10.777Z,102905.54
2019-02-12T07:09:56.317Z,102910.74
2019-02-12T07:13:25.331Z,102927.45
2019-02-12T07:16:14.360Z,102926.37
2019-02-12T07:19:34.255Z,102936.34
2019-02-12T07:23:21.406Z,102946.00
2019-02-12T07:26:57.521Z,102949.31
2019-02-12T07:30:18.724Z,102953.61
2019-02-12T07:33:49.929Z,102948.26
2019-02-12T07:37:43.859Z,102960.41
2019-02-12T07:41:32.400Z,102970.23
2019-02-12T07:44:54.456Z,102973.85
2019-02-12T07:47:56.386Z,102975.51
2019-02-12T07:51:29.345Z,102976.89
2019-02-12T07:55:23.341Z,102976.23
2019-02-12T07:58:38.646Z,102984.84
2019-02-12T08:01:31.907Z,102991.81
2019-02-12T08:04:46.014Z,103006.22
2019-02-12T08:07:53.492Z,103008.31
2019-02-12T08:11:05.533Z,103009.73
2019-02-12T08:14:07.050Z,103010.04
2019-02-12T08:17:34.642Z,103015.19
2019-02-12T08:21:03.285Z,103024.41
2019-02-12T08:24:19.895Z,103035.51
2019-02-12T08:27:38.535Z,103043.76
2019-02-12T08:31:14.149Z,103045.63
2019-02-12T08:34:33.757Z,103050.55
2019-02-12T08:37:51.309Z,103051.41
2019-02-12T08:41:06.234Z,103058.49
2019-02-12T08:44:48.337Z,103064.82
2019-02-12T08:48:20.267Z,103059.72
2019-02-12T08:51:27.382Z,103055.95
2019-02-12T08:54:44.311Z,103063.27
2019-02-12T08:57:56.684Z,103065.06
2019-02-12T09:01:46.222Z,103066.70
2019-02-12T09:04:59.349Z,103071.00
2019-02-12T09:08:53.292Z,103070.84
2019-02-12T09:12:28.049Z,103069.80
2019-02-12T09:15:59.003Z,103076.30
2019-02-12T09:19:04.515Z,103082.50
2019-02-12T09:22:38.608Z,103087.41
2019-02-12T09:25:41.715Z,103088.36
2019-02-12T09:28:40.817Z,103086.53
2019-02-12T09:32:15.621Z,103089.36
2019-02-12T09:35:30.400Z,103089.36
2019-02-12T09:38:44.808Z,103089.98
2019-02-12T09:41:41.754Z,103087.02
2019-02-12T09:45:29.243Z,103096.31
2019-02-12T09:48:55.277Z,103096.66
2019-02-12T09:52:30.640Z,103100.47
2019-02-12T09:55:51.558Z,103105.91
2019-02-12T09:59:23.203Z,103114.09
2019-02-12T10:02:15.773Z,103119.81
2019-02-12T10:05:23.751Z,103116.05
2019-02-12T10:08:33.211Z,103120.65
2019-02-12T10:11:41.600Z,103125.00
2019-02-12T10:14:39.598Z,103124.45
2019-02-12T10:18:07.763Z,103127.44
2019-02-12T10:21:02.938Z,103126.36
2019-02-12T10:24:29.940Z,103132.88
2019-02-12T10:27:20.643Z,103145.32
2019-02-12T10:30:48.274Z,103148.59
2019-02-12T10:33:16.858Z,103147.49
2019-02-12T10:35:45.618Z,103147.77
2019-02-12T10:40:43.022Z,103145.84
2019-02-12T10:43:11.995Z,103149.38
2019-02-12T10:45:40.660Z,103146.62
2019-02-12T10:48:09.778Z,103151.80
2019-02-12T10:50:38.228Z,103141.98
2019-02-12T10:53:08.747Z,103136.59
2019-02-12T10:55:37.756Z,103142.31
2019-02-12T10:58:06.282Z,103138.27
2019-02-12T11:00:35.239Z,103140.41
2019-02-12T11:03:04.072Z,103139.61
2019-02-12T11:05:34.020Z,103140.67
2019-02-12T11:08:02.639Z,103144.73
2019-02-12T11:10:31.192Z,103147.22
2019-02-12T11:12:59.935Z,103151.78
2019-02-12T11:15:29.103Z,103152.88
2019-02-12T11:17:57.815Z,103143.34
2019-02-12T11:20:26.598Z,103140.58
2019-02-12T11:22:55.698Z,103137.81
2019-02-12T11:25:24.549Z,103132.31
2019-02-12T11:27:53.259Z,103134.52
2019-02-12T11:30:21.749Z,103141.31
2019-02-12T11:32:50.469Z,103136.52
2019-02-12T11:35:19.306Z,103139.55
2019-02-12T11:37:48.273Z,103135.31
2019-02-12T11:40:17.110Z,103137.57
2019-02-12T11:42:45.926Z,103131.78
2019-02-12T11:45:14.928Z,103125.17
2019-02-12T11:47:45.238Z,103115.91
2019-02-12T11:50:14.044Z,103118.34
2019-02-12T11:52:42.851Z,103126.53
2019-02-12T11:55:11.724Z,103114.87
2019-02-12T11:57:40.171Z,103117.13
2019-02-12T12:00:11.940Z,103118.98
2019-02-12T12:02:42.025Z,103107.58
2019-02-12T12:05:10.884Z,103112.00
2019-02-12T12:07:39.298Z,103122.34
2019-02-12T12:10:08.695Z,103118.42
2019-02-12T12:12:37.970Z,103119.58
2019-02-12T12:15:08.112Z,103114.75
2019-02-12T12:17:37.292Z,103119.78
2019-02-12T12:20:06.941Z,103113.06
2019-02-12T12:22:35.881Z,103117.48
2019-02-12T12:25:05.735Z,103126.36
2019-02-12T12:27:34.277Z,103129.25
2019-02-12T12:30:02.895Z,103130.23
2019-02-12T12:32:31.939Z,103131.52
2019-02-12T12:35:00.604Z,103132.39
2019-02-12T12:37:29.280Z,103129.45
2019-02-12T12:39:57.880Z,103137.82
2019-02-12T12:42:27.012Z,103140.91
2019-02-12T12:44:57.330Z,103139.83
2019-02-12T12:47:25.933Z,103136.29
2019-02-12T12:49:54.502Z,103138.72
2019-02-12T12:52:23.228Z,103143.69
2019-02-12T12:54:58.442Z,103139.22
2019-02-12T12:57:22.803Z,103135.34
2019-02-12T12:59:51.885Z,103138.06
2019-02-12T13:02:20.560Z,103143.21
2019-02-12T13:04:49.144Z,103143.47
2019-02-12T13:07:17.664Z,103148.55
2019-02-12T13:09:46.620Z,103147.03
2019-02-12T13:12:15.271Z,103147.83
2019-02-12T13:14:43.848Z,103142.39
2019-02-12T13:17:12.765Z,103146.13
2019-02-12T13:19:41.254Z,103141.54
2019-02-12T13:22:09.768Z,103145.08
2019-02-12T13:24:38.447Z,103144.28
2019-02-12T13:27:07.569Z,103146.16
2019-02-12T13:29:36.109Z,103145.52
2019-02-12T13:32:04.736Z,103144.44
2019-02-12T13:34:34.003Z,103144.37
2019-02-12T13:37:03.192Z,103136.21
2019-02-12T13:39:32.193Z,103142.47
2019-02-12T13:42:00.966Z,103140.74
2019-02-12T13:44:29.570Z,103142.72
2019-02-12T13:46:58.204Z,103140.55
2019-02-12T13:49:26.974Z,103136.58
2019-02-12T13:51:55.910Z,103121.71
2019-02-12T13:54:24.535Z,103131.67
2019-02-12T13:56:53.021Z,103129.66
2019-02-12T13:59:21.550Z,103127.73
2019-02-12T14:01:50.164Z,103118.55
2019-02-12T14:04:18.688Z,103117.87
2019-02-12T14:06:47.451Z,103115.41
2019-02-12T14:09:16.702Z,103121.33
2019-02-12T14:11:45.176Z,103116.09
2019-02-12T14:14:13.951Z,103128.86
2019-02-12T14:16:42.510Z,103124.82
2019-02-12T14:19:11.186Z,103127.17
2019-02-12T14:21:39.700Z,103126.64
2019-02-12T14:24:08.937Z,103127.87
2019-02-12T14:26:38.242Z,103127.06
2019-02-12T14:29:06.911Z,103118.75
2019-02-12T14:31:35.616Z,103123.06
2019-02-12T14:34:04.214Z,103123.56
2019-02-12T14:36:33.232Z,103130.08
2019-02-12T14:39:04.359Z,103128.55
2019-02-12T14:41:33.401Z,103124.19
2019-02-12T14:44:02.267Z,103138.97
2019-02-12T14:46:30.638Z,103140.91
2019-02-12T14:48:59.164Z,103139.83
2019-02-12T14:51:27.833Z,103140.86
2019-02-12T14:53:56.474Z,103144.66
2019-02-12T14:56:25.023Z,103145.94
2019-02-12T14:58:53.572Z,103139.72
2019-02-12T15:01:22.269Z,103143.50
2019-02-12T15:03:50.900Z,103136.13
2019-02-12T15:06:19.687Z,103136.70
2019-02-12T15:08:48.365Z,103146.59
2019-02-12T15:11:17.041Z,103140.61
2019-02-12T15:13:45.652Z,103148.55
2019-02-12T15:16:14.124Z,103145.23
2019-02-12T15:18:42.654Z,103144.66
2019-02-12T15:21:11.706Z,103144.54
2019-02-12T15:23:40.819Z,103144.73
2019-02-12T15:26:09.612Z,103143.19
2019-02-12T15:28:38.632Z,103141.34
2019-02-12T15:31:07.473Z,103143.49
2019-02-12T15:33:36.134Z,103144.19
2019-02-12T15:36:04.648Z,103140.15
2019-02-12T15:38:33.876Z,103143.69
2019-02-12T15:41:02.358Z,103147.23
2019-02-12T15:43:30.887Z,103144.48
2019-02-12T15:45:59.636Z,103147.20
2019-02-12T15:48:28.506Z,103150.98
2019-02-12T15:50:57.113Z,103141.25
2019-02-12T15:53:25.954Z,103140.18
2019-02-12T15:55:54.544Z,103129.03
2019-02-12T15:58:23.231Z,103132.85
2019-02-12T16:00:51.875Z,103131.67
2019-02-12T16:03:21.658Z,103141.76
2019-02-12T16:05:50.206Z,103144.54
2019-02-12T16:08:18.834Z,103146.52
2019-02-12T16:10:47.467Z,103146.77
2019-02-12T16:13:16.098Z,103152.25
2019-02-12T16:15:47.113Z,103150.33
2019-02-12T16:18:16.002Z,103149.49
2019-02-12T16:20:44.491Z,103141.42
2019-02-12T16:23:12.969Z,103143.85
2019-02-12T16:25:41.756Z,103144.96
2019-02-12T16:28:10.241Z,103138.42
2019-02-12T16:30:39.144Z,103138.98
2019-02-12T16:33:07.896Z,103134.95
2019-02-12T16:35:36.595Z,103131.98
2019-02-12T16:38:05.019Z,103137.67
2019-02-12T16:40:33.833Z,103136.04
2019-02-12T16:43:02.557Z,103142.05
2019-02-12T16:45:46.506Z,103151.00
2019-02-12T16:48:15.131Z,103145.27
2019-02-12T16:50:44.220Z,103144.20
2019-02-12T16:53:12.760Z,103146.65
2019-02-12T16:55:41.337Z,103143.89
2019-02-12T16:58:09.944Z,103145.57
2019-02-12T17:00:38.497Z,103144.49
2019-02-12T17:03:06.985Z,103145.02
2019-02-12T17:05:35.465Z,103137.70
2019-02-12T17:08:04.145Z,103139.88
2019-02-12T17:10:32.533Z,103140.97
2019-02-12T17:13:01.625Z,103138.54
2019-02-12T17:15:30.175Z,103144.50
2019-02-12T17:18:08.464Z,103141.81
2019-02-12T17:20:37.192Z,103143.70
2019-02-12T17:23:07.594Z,103151.02
2019-02-12T17:25:37.483Z,103148.84
2019-02-12T17:28:06.145Z,103146.69
2019-02-12T17:30:34.516Z,103146.14
2019-02-12T17:33:03.148Z,103148.83
2019-02-12T17:35:31.815Z,103140.72
2019-02-12T17:38:00.479Z,103145.04
2019-02-12T17:40:29.065Z,103139.08
2019-02-12T17:42:57.602Z,103136.11
2019-02-12T17:45:27.496Z,103136.91
2019-02-12T17:47:56.209Z,103136.38
2019-02-12T17:50:26.076Z,103148.58
2019-02-12T17:52:55.104Z,103149.39
2019-02-12T17:55:23.568Z,103149.94
2019-02-12T17:57:52.084Z,103147.50
2019-02-12T18:00:26.499Z,103146.70
2019-02-12T18:02:55.305Z,103139.10
2019-02-12T18:05:23.686Z,103151.56
2019-02-12T18:07:52.199Z,103155.36
2019-02-12T18:10:22.273Z,103144.51
2019-02-12T18:12:51.241Z,103153.72
2019-02-12T18:15:19.699Z,103149.95
2019-02-12T18:17:48.312Z,103152.40
2019-02-12T18:20:17.105Z,103150.48
2019-02-12T18:22:45.674Z,103149.94
2019-02-12T18:25:14.219Z,103148.87
2019-02-12T18:27:42.822Z,103155.11
2019-02-12T18:30:14.004Z,103152.13
2019-02-12T18:32:42.509Z,103153.20
2019-02-12T18:35:11.334Z,103153.20
2019-02-12T18:37:40.348Z,103148.30
2019-02-12T18:40:13.561Z,103143.44
2019-02-12T18:42:42.316Z,103143.98
2019-02-12T18:45:14.194Z,103140.99
2019-02-12T18:47:42.746Z,103143.97
2019-02-12T18:50:11.995Z,103140.46
2019-02-12T18:52:40.467Z,103138.83
2019-02-12T18:55:10.581Z,103135.30
2019-02-12T18:57:39.273Z,103135.58
2019-02-12T19:00:15.330Z,103139.92
2019-02-12T19:02:44.685Z,103143.97
2019-02-12T19:05:13.314Z,103135.05
2019-02-12T19:07:42.905Z,103131.77
2019-02-12T19:10:12.508Z,103133.66
2019-02-12T19:12:41.355Z,103141.81
2019-02-12T19:15:15.331Z,103142.07
2019-02-12T19:17:48.127Z,103143.97
2019-02-12T19:20:16.641Z,103144.53
2019-02-12T19:22:46.211Z,103151.30
2019-02-12T19:25:16.117Z,103149.94
2019-02-12T19:27:44.775Z,103148.30
2019-02-12T19:30:16.262Z,103147.75
2019-02-12T19:32:45.360Z,103138.83
2019-02-12T19:35:14.726Z,103132.86
2019-02-12T19:37:45.105Z,103125.81
2019-02-12T19:40:13.767Z,103134.48
2019-02-12T19:42:43.469Z,103126.36
2019-02-12T19:45:12.186Z,103135.56
2019-02-12T19:47:40.795Z,103134.75
2019-02-12T19:50:09.820Z,103139.64
2019-02-12T19:52:39.053Z,103136.94
2019-02-12T19:55:07.866Z,103138.82
2019-02-12T19:57:36.528Z,103142.06
2019-02-12T20:00:07.686Z,103139.92
2019-02-12T20:02:36.615Z,103145.33
2019-02-12T20:05:06.271Z,103144.52
2019-02-12T20:07:35.349Z,103143.44
2019-02-12T20:10:05.313Z,103134.48
2019-02-12T20:12:33.935Z,103134.77
2019-02-12T20:15:02.631Z,103139.62
2019-02-12T20:17:31.191Z,103137.45
2019-02-12T20:20:00.322Z,103140.16
2019-02-12T20:22:28.993Z,103139.91
2019-02-12T20:24:58.737Z,103140.98
2019-02-12T20:27:35.583Z,103134.73
2019-02-12T20:29:59.163Z,103133.39
2019-02-12T20:32:28.712Z,103140.42
2019-02-12T20:34:57.976Z,103137.19
2019-02-12T20:37:27.997Z,103137.45
2019-02-12T20:39:57.227Z,103134.21
2019-02-12T20:42:25.955Z,103132.86
2019-02-12T20:44:54.906Z,103133.11
2019-02-12T20:47:24.887Z,103132.59
2019-02-12T20:49:53.608Z,103136.92
2019-02-12T20:52:22.991Z,103137.73
2019-02-12T20:54:51.629Z,103135.84
2019-02-12T20:57:20.128Z,103143.42
2019-02-12T20:59:48.946Z,103146.41
2019-02-12T21:02:17.424Z,103143.42
2019-02-12T21:04:46.040Z,103151.55
2019-02-12T21:07:15.023Z,103157.23
2019-02-12T21:09:43.592Z,103169.44
2019-02-12T21:12:12.167Z,103168.91
2019-02-12T21:14:40.792Z,103168.09
2019-02-12T21:17:09.388Z,103168.11
2019-02-12T21:19:37.934Z,103166.20
2019-02-12T21:22:06.941Z,103169.47
2019-02-12T21:24:35.541Z,103161.05
2019-02-12T21:27:04.366Z,103160.50
2019-02-12T21:29:32.840Z,103161.59
2019-02-12T21:32:01.835Z,103158.32
2019-02-12T21:34:30.338Z,103167.02
2019-02-12T21:36:59.065Z,103164.29
2019-02-12T21:39:27.740Z,103160.22
2019-02-12T21:41:56.389Z,103164.56
2019-02-12T21:44:25.376Z,103157.22
2019-02-12T21:46:54.219Z,103153.19
2019-02-12T21:49:23.094Z,103150.72
2019-02-12T21:51:51.712Z,103151.55
2019-02-12T21:54:21.789Z,103157.23
2019-02-12T21:56:50.593Z,103169.95
2019-02-12T21:59:19.557Z,103163.20
2019-02-12T22:01:50.210Z,103166.44
2019-02-12T22:04:18.808Z,103171.84
2019-02-12T22:06:47.325Z,103170.24
2019-02-12T22:09:15.849Z,103166.98
2019-02-12T22:11:45.270Z,103172.40
2019-02-12T22:14:13.769Z,103174.30
2019-02-12T22:16:42.394Z,103163.73
2019-02-12T22:19:10.962Z,103164.00
2019-02-12T22:21:39.880Z,103169.96
2019-02-12T22:24:08.779Z,103179.73
2019-02-12T22:26:37.285Z,103182.69
2019-02-12T22:29:06.380Z,103178.08
2019-02-12T22:31:35.058Z,103183.53
2019-02-12T22:34:03.519Z,103190.30
2019-02-12T22:36:32.024Z,103192.75
2019-02-12T22:39:00.533Z,103196.55
2019-02-12T22:41:28.957Z,103192.22
2019-02-12T22:43:57.553Z,103196.84
2019-02-12T22:46:26.432Z,103198.74
2019-02-12T22:48:55.506Z,103210.69
2019-02-12T22:51:24.045Z,103222.85
2019-02-12T22:53:52.803Z,103214.72
2019-02-12T22:56:22.552Z,103212.83
2019-02-12T22:58:51.186Z,103205.25
2019-02-12T23:01:28.006Z,103204.44
2019-02-12T23:03:57.070Z,103206.34
2019-02-12T23:06:25.634Z,103210.95
2019-02-12T23:08:55.865Z,103206.62
2019-02-12T23:11:24.241Z,103200.64
2019-02-12T23:13:52.732Z,103198.50
2019-02-12T23:16:21.713Z,103202.30
2019-02-12T23:18:50.253Z,103201.48
2019-02-12T23:21:19.100Z,103203.65
2019-02-12T23:23:47.831Z,103206.63
2019-02-12T23:26:16.981Z,103213.69
2019-02-12T23:28:45.516Z,103210.44
2019-02-12T23:31:14.601Z,103198.22
2019-02-12T23:33:43.486Z,103204.46
2019-02-12T23:36:11.909Z,103205.84
2019-02-12T23:38:40.397Z,103217.47
2019-02-12T23:41:08.895Z,103225.37
2019-02-12T23:43:38.063Z,103210.97
2019-02-12T23:46:06.592Z,103210.72
2019-02-12T23:48:35.292Z,103216.42
2019-02-12T23:51:03.792Z,103221.03
2019-02-12T23:53:32.536Z,103208.53
2019-02-12T23:56:01.894Z,103204.73
2019-02-12T23:58:30.474Z,103204.73
